sensor_id;sensor_type;location;lat;lon;timestamp;temperature;humidity
73141;SHT31;61339;50.558;4.696;2023-08-31T00:01:39;12.86;88.33
73141;SHT31;61339;50.558;4.696;2023-08-31T00:04:05;12.86;87.76
73141;SHT31;61339;50.558;4.696;2023-08-31T00:06:36;12.83;87.49
73141;SHT31;61339;50.558;4.696;2023-08-31T00:09:01;12.81;87.66
73141;SHT31;61339;50.558;4.696;2023-08-31T00:11:30;12.75;87.46
73141;SHT31;61339;50.558;4.696;2023-08-31T00:13:55;12.76;87.73
73141;SHT31;61339;50.558;4.696;2023-08-31T00:16:24;12.76;87.87
73141;SHT31;61339;50.558;4.696;2023-08-31T00:18:51;12.71;88.02
73141;SHT31;61339;50.558;4.696;2023-08-31T00:21:16;12.72;88.03
73141;SHT31;61339;50.558;4.696;2023-08-31T00:23:41;12.75;88.04
73141;SHT31;61339;50.558;4.696;2023-08-31T00:26:07;12.71;87.93
73141;SHT31;61339;50.558;4.696;2023-08-31T00:28:34;12.72;88.15
73141;SHT31;61339;50.558;4.696;2023-08-31T00:31:02;12.76;88.25
73141;SHT31;61339;50.558;4.696;2023-08-31T00:33:31;12.78;87.93
73141;SHT31;61339;50.558;4.696;2023-08-31T00:35:59;12.79;88.20
73141;SHT31;61339;50.558;4.696;2023-08-31T00:38:27;12.82;88.25
73141;SHT31;61339;50.558;4.696;2023-08-31T00:40:53;12.82;88.32
73141;SHT31;61339;50.558;4.696;2023-08-31T00:43:19;12.82;88.49
73141;SHT31;61339;50.558;4.696;2023-08-31T00:45:46;12.81;88.54
73141;SHT31;61339;50.558;4.696;2023-08-31T00:48:15;12.83;88.62
73141;SHT31;61339;50.558;4.696;2023-08-31T00:50:43;12.86;88.40
73141;SHT31;61339;50.558;4.696;2023-08-31T00:53:08;12.83;88.66
73141;SHT31;61339;50.558;4.696;2023-08-31T00:55:34;12.88;88.62
73141;SHT31;61339;50.558;4.696;2023-08-31T00:58:00;12.89;88.62
73141;SHT31;61339;50.558;4.696;2023-08-31T01:06:07;12.91;88.07
73141;SHT31;61339;50.558;4.696;2023-08-31T01:11:08;12.91;88.48
73141;SHT31;61339;50.558;4.696;2023-08-31T01:13:41;12.93;88.10
73141;SHT31;61339;50.558;4.696;2023-08-31T01:16:10;12.92;88.43
73141;SHT31;61339;50.558;4.696;2023-08-31T01:18:39;12.92;88.41
73141;SHT31;61339;50.558;4.696;2023-08-31T01:23:54;12.92;88.37
73141;SHT31;61339;50.558;4.696;2023-08-31T01:26:21;12.93;88.39
73141;SHT31;61339;50.558;4.696;2023-08-31T01:28:48;12.95;88.44
73141;SHT31;61339;50.558;4.696;2023-08-31T01:31:13;12.96;88.46
73141;SHT31;61339;50.558;4.696;2023-08-31T01:33:40;12.93;88.15
73141;SHT31;61339;50.558;4.696;2023-08-31T01:36:10;12.95;88.28
73141;SHT31;61339;50.558;4.696;2023-08-31T01:38:39;12.97;88.09
73141;SHT31;61339;50.558;4.696;2023-08-31T01:41:10;12.99;88.10
73141;SHT31;61339;50.558;4.696;2023-08-31T01:43:40;12.99;88.20
73141;SHT31;61339;50.558;4.696;2023-08-31T01:46:08;12.99;87.89
73141;SHT31;61339;50.558;4.696;2023-08-31T01:48:40;13.04;87.82
73141;SHT31;61339;50.558;4.696;2023-08-31T01:51:07;13.00;87.90
73141;SHT31;61339;50.558;4.696;2023-08-31T01:53:33;13.06;87.90
73141;SHT31;61339;50.558;4.696;2023-08-31T01:55:58;13.04;87.75
73141;SHT31;61339;50.558;4.696;2023-08-31T01:58:24;13.03;87.84
73141;SHT31;61339;50.558;4.696;2023-08-31T02:00:49;13.06;87.75
73141;SHT31;61339;50.558;4.696;2023-08-31T02:03:15;13.07;87.59
73141;SHT31;61339;50.558;4.696;2023-08-31T02:05:40;13.06;87.64
73141;SHT31;61339;50.558;4.696;2023-08-31T02:08:05;13.04;87.76
73141;SHT31;61339;50.558;4.696;2023-08-31T02:10:31;13.06;87.70
73141;SHT31;61339;50.558;4.696;2023-08-31T02:12:56;13.03;87.86
73141;SHT31;61339;50.558;4.696;2023-08-31T02:15:22;13.04;87.82
73141;SHT31;61339;50.558;4.696;2023-08-31T02:17:47;13.06;87.58
73141;SHT31;61339;50.558;4.696;2023-08-31T02:20:13;13.04;87.33
73141;SHT31;61339;50.558;4.696;2023-08-31T02:22:39;13.04;87.46
73141;SHT31;61339;50.558;4.696;2023-08-31T02:25:05;13.04;87.58
73141;SHT31;61339;50.558;4.696;2023-08-31T02:27:31;13.06;87.35
73141;SHT31;61339;50.558;4.696;2023-08-31T02:29:56;13.06;87.31
73141;SHT31;61339;50.558;4.696;2023-08-31T02:32:22;13.04;87.40
73141;SHT31;61339;50.558;4.696;2023-08-31T02:34:48;13.04;87.51
73141;SHT31;61339;50.558;4.696;2023-08-31T02:37:13;13.03;87.57
73141;SHT31;61339;50.558;4.696;2023-08-31T02:39:38;13.03;87.51
73141;SHT31;61339;50.558;4.696;2023-08-31T02:42:05;13.04;87.67
73141;SHT31;61339;50.558;4.696;2023-08-31T02:44:31;13.04;87.57
73141;SHT31;61339;50.558;4.696;2023-08-31T02:46:57;13.04;87.67
73141;SHT31;61339;50.558;4.696;2023-08-31T02:49:22;13.04;87.80
73141;SHT31;61339;50.558;4.696;2023-08-31T02:51:47;13.03;87.78
73141;SHT31;61339;50.558;4.696;2023-08-31T02:54:14;13.04;87.77
73141;SHT31;61339;50.558;4.696;2023-08-31T02:56:40;13.04;87.89
73141;SHT31;61339;50.558;4.696;2023-08-31T02:59:05;13.02;87.94
73141;SHT31;61339;50.558;4.696;2023-08-31T03:01:30;13.02;87.95
73141;SHT31;61339;50.558;4.696;2023-08-31T03:03:56;13.00;87.86
73141;SHT31;61339;50.558;4.696;2023-08-31T03:06:21;12.99;87.87
73141;SHT31;61339;50.558;4.696;2023-08-31T03:08:47;13.00;87.82
73141;SHT31;61339;50.558;4.696;2023-08-31T03:11:12;13.00;88.04
73141;SHT31;61339;50.558;4.696;2023-08-31T03:13:39;12.99;88.03
73141;SHT31;61339;50.558;4.696;2023-08-31T03:16:05;13.02;87.89
73141;SHT31;61339;50.558;4.696;2023-08-31T03:18:30;13.02;87.80
73141;SHT31;61339;50.558;4.696;2023-08-31T03:20:56;13.00;88.00
73141;SHT31;61339;50.558;4.696;2023-08-31T03:23:21;12.99;87.89
73141;SHT31;61339;50.558;4.696;2023-08-31T03:25:47;12.99;88.06
73141;SHT31;61339;50.558;4.696;2023-08-31T03:28:13;13.00;87.97
73141;SHT31;61339;50.558;4.696;2023-08-31T03:30:38;12.99;87.80
73141;SHT31;61339;50.558;4.696;2023-08-31T03:33:04;12.97;87.73
73141;SHT31;61339;50.558;4.696;2023-08-31T03:35:31;12.99;87.55
73141;SHT31;61339;50.558;4.696;2023-08-31T03:37:57;12.96;87.55
73141;SHT31;61339;50.558;4.696;2023-08-31T03:40:22;12.97;87.61
73141;SHT31;61339;50.558;4.696;2023-08-31T03:42:49;12.96;87.49
73141;SHT31;61339;50.558;4.696;2023-08-31T03:45:15;12.97;87.51
73141;SHT31;61339;50.558;4.696;2023-08-31T03:47:40;12.95;87.67
73141;SHT31;61339;50.558;4.696;2023-08-31T03:50:06;12.92;87.74
73141;SHT31;61339;50.558;4.696;2023-08-31T03:52:32;12.91;87.86
73141;SHT31;61339;50.558;4.696;2023-08-31T03:54:57;12.88;88.09
73141;SHT31;61339;50.558;4.696;2023-08-31T03:57:23;12.82;88.17
73141;SHT31;61339;50.558;4.696;2023-08-31T03:59:48;12.82;88.16
73141;SHT31;61339;50.558;4.696;2023-08-31T04:02:14;12.79;88.25
73141;SHT31;61339;50.558;4.696;2023-08-31T04:04:39;12.78;88.17
73141;SHT31;61339;50.558;4.696;2023-08-31T04:07:05;12.78;88.31
73141;SHT31;61339;50.558;4.696;2023-08-31T04:09:31;12.78;88.34
73141;SHT31;61339;50.558;4.696;2023-08-31T04:11:57;12.81;88.28
73141;SHT31;61339;50.558;4.696;2023-08-31T04:14:22;12.81;88.42
73141;SHT31;61339;50.558;4.696;2023-08-31T04:16:47;12.82;88.26
73141;SHT31;61339;50.558;4.696;2023-08-31T04:19:16;12.82;88.34
73141;SHT31;61339;50.558;4.696;2023-08-31T04:21:43;12.82;88.34
73141;SHT31;61339;50.558;4.696;2023-08-31T04:24:08;12.81;88.35
73141;SHT31;61339;50.558;4.696;2023-08-31T04:26:34;12.79;88.23
73141;SHT31;61339;50.558;4.696;2023-08-31T04:28:59;12.76;88.49
73141;SHT31;61339;50.558;4.696;2023-08-31T04:31:24;12.71;88.74
73141;SHT31;61339;50.558;4.696;2023-08-31T04:33:50;12.72;88.85
73141;SHT31;61339;50.558;4.696;2023-08-31T04:36:20;12.72;88.93
73141;SHT31;61339;50.558;4.696;2023-08-31T04:38:45;12.69;88.92
73141;SHT31;61339;50.558;4.696;2023-08-31T04:41:11;12.71;89.06
73141;SHT31;61339;50.558;4.696;2023-08-31T04:43:36;12.65;89.12
73141;SHT31;61339;50.558;4.696;2023-08-31T04:46:01;12.61;89.23
73141;SHT31;61339;50.558;4.696;2023-08-31T04:48:29;12.55;89.30
73141;SHT31;61339;50.558;4.696;2023-08-31T04:50:56;12.55;89.30
73141;SHT31;61339;50.558;4.696;2023-08-31T04:53:22;12.54;89.28
73141;SHT31;61339;50.558;4.696;2023-08-31T04:55:47;12.51;89.31
73141;SHT31;61339;50.558;4.696;2023-08-31T04:58:13;12.49;89.28
73141;SHT31;61339;50.558;4.696;2023-08-31T05:00:38;12.54;89.09
73141;SHT31;61339;50.558;4.696;2023-08-31T05:03:04;12.51;89.09
73141;SHT31;61339;50.558;4.696;2023-08-31T05:05:30;12.52;88.70
73141;SHT31;61339;50.558;4.696;2023-08-31T05:07:55;12.55;88.52
73141;SHT31;61339;50.558;4.696;2023-08-31T05:10:21;12.55;88.53
73141;SHT31;61339;50.558;4.696;2023-08-31T05:12:46;12.55;88.36
73141;SHT31;61339;50.558;4.696;2023-08-31T05:15:11;12.55;88.41
73141;SHT31;61339;50.558;4.696;2023-08-31T05:17:37;12.52;88.37
73141;SHT31;61339;50.558;4.696;2023-08-31T05:20:03;12.51;88.18
73141;SHT31;61339;50.558;4.696;2023-08-31T05:22:29;12.51;88.28
73141;SHT31;61339;50.558;4.696;2023-08-31T05:24:56;12.52;88.07
73141;SHT31;61339;50.558;4.696;2023-08-31T05:27:21;12.48;88.22
73141;SHT31;61339;50.558;4.696;2023-08-31T05:29:47;12.46;88.18
73141;SHT31;61339;50.558;4.696;2023-08-31T05:32:12;12.42;88.27
73141;SHT31;61339;50.558;4.696;2023-08-31T05:34:38;12.34;88.38
73141;SHT31;61339;50.558;4.696;2023-08-31T05:37:04;12.27;88.58
73141;SHT31;61339;50.558;4.696;2023-08-31T05:39:30;12.23;88.66
73141;SHT31;61339;50.558;4.696;2023-08-31T05:41:56;12.14;89.01
73141;SHT31;61339;50.558;4.696;2023-08-31T05:44:22;12.16;88.88
73141;SHT31;61339;50.558;4.696;2023-08-31T05:46:47;12.13;89.10
73141;SHT31;61339;50.558;4.696;2023-08-31T05:49:13;12.10;89.10
73141;SHT31;61339;50.558;4.696;2023-08-31T05:51:38;12.11;89.22
73141;SHT31;61339;50.558;4.696;2023-08-31T05:54:03;12.13;89.09
73141;SHT31;61339;50.558;4.696;2023-08-31T05:56:29;12.14;89.01
73141;SHT31;61339;50.558;4.696;2023-08-31T05:58:54;12.17;88.97
73141;SHT31;61339;50.558;4.696;2023-08-31T06:01:21;12.44;88.30
73141;SHT31;61339;50.558;4.696;2023-08-31T06:03:48;12.52;87.95
73141;SHT31;61339;50.558;4.696;2023-08-31T06:06:14;12.88;86.75
73141;SHT31;61339;50.558;4.696;2023-08-31T06:08:39;13.62;84.48
73141;SHT31;61339;50.558;4.696;2023-08-31T06:11:05;14.15;82.29
73141;SHT31;61339;50.558;4.696;2023-08-31T06:13:31;14.57;80.70
73141;SHT31;61339;50.558;4.696;2023-08-31T06:15:56;14.46;81.06
73141;SHT31;61339;50.558;4.696;2023-08-31T06:18:24;14.33;81.93
73141;SHT31;61339;50.558;4.696;2023-08-31T06:20:49;14.57;80.88
73141;SHT31;61339;50.558;4.696;2023-08-31T06:23:15;15.02;79.46
73141;SHT31;61339;50.558;4.696;2023-08-31T06:25:40;14.79;79.93
73141;SHT31;61339;50.558;4.696;2023-08-31T06:28:06;14.91;79.67
73141;SHT31;61339;50.558;4.696;2023-08-31T06:30:34;14.84;80.08
73141;SHT31;61339;50.558;4.696;2023-08-31T06:33:00;14.92;79.77
73141;SHT31;61339;50.558;4.696;2023-08-31T06:35:25;14.97;79.68
73141;SHT31;61339;50.558;4.696;2023-08-31T06:37:51;14.85;80.20
73141;SHT31;61339;50.558;4.696;2023-08-31T06:40:21;14.69;80.74
73141;SHT31;61339;50.558;4.696;2023-08-31T06:42:47;14.73;80.67
73141;SHT31;61339;50.558;4.696;2023-08-31T06:45:12;14.51;80.95
73141;SHT31;61339;50.558;4.696;2023-08-31T06:47:38;14.42;81.70
73141;SHT31;61339;50.558;4.696;2023-08-31T06:50:04;14.47;81.94
73141;SHT31;61339;50.558;4.696;2023-08-31T06:52:29;14.43;81.99
73141;SHT31;61339;50.558;4.696;2023-08-31T06:54:55;14.57;81.55
73141;SHT31;61339;50.558;4.696;2023-08-31T06:57:25;14.70;81.14
73141;SHT31;61339;50.558;4.696;2023-08-31T06:59:51;14.63;81.09
73141;SHT31;61339;50.558;4.696;2023-08-31T07:02:16;14.70;81.03
73141;SHT31;61339;50.558;4.696;2023-08-31T07:04:42;14.92;80.31
73141;SHT31;61339;50.558;4.696;2023-08-31T07:07:07;15.17;79.60
73141;SHT31;61339;50.558;4.696;2023-08-31T07:09:34;16.04;77.17
73141;SHT31;61339;50.558;4.696;2023-08-31T07:12:00;16.54;75.16
73141;SHT31;61339;50.558;4.696;2023-08-31T07:14:26;16.37;75.59
73141;SHT31;61339;50.558;4.696;2023-08-31T07:16:52;16.22;75.59
73141;SHT31;61339;50.558;4.696;2023-08-31T07:19:17;16.47;75.39
73141;SHT31;61339;50.558;4.696;2023-08-31T07:21:42;16.89;74.33
73141;SHT31;61339;50.558;4.696;2023-08-31T07:24:08;17.23;73.14
73141;SHT31;61339;50.558;4.696;2023-08-31T07:26:33;17.31;72.33
73141;SHT31;61339;50.558;4.696;2023-08-31T07:29:00;17.63;71.49
73141;SHT31;61339;50.558;4.696;2023-08-31T07:31:26;18.70;68.05
73141;SHT31;61339;50.558;4.696;2023-08-31T07:33:52;19.52;65.73
73141;SHT31;61339;50.558;4.696;2023-08-31T07:36:17;19.72;64.90
73141;SHT31;61339;50.558;4.696;2023-08-31T07:38:43;19.31;66.06
73141;SHT31;61339;50.558;4.696;2023-08-31T07:41:08;19.11;66.89
73141;SHT31;61339;50.558;4.696;2023-08-31T07:43:33;18.53;68.31
73141;SHT31;61339;50.558;4.696;2023-08-31T07:45:59;19.51;66.09
73141;SHT31;61339;50.558;4.696;2023-08-31T07:48:24;20.04;63.34
73141;SHT31;61339;50.558;4.696;2023-08-31T07:50:50;19.73;64.22
73141;SHT31;61339;50.558;4.696;2023-08-31T07:53:15;19.22;65.69
73141;SHT31;61339;50.558;4.696;2023-08-31T07:55:53;18.59;67.47
73141;SHT31;61339;50.558;4.696;2023-08-31T07:58:22;18.16;68.97
73141;SHT31;61339;50.558;4.696;2023-08-31T08:00:48;17.92;70.04
73141;SHT31;61339;50.558;4.696;2023-08-31T08:03:14;19.07;66.96
73141;SHT31;61339;50.558;4.696;2023-08-31T08:05:40;19.59;65.03
73141;SHT31;61339;50.558;4.696;2023-08-31T08:08:06;19.94;64.63
73141;SHT31;61339;50.558;4.696;2023-08-31T08:10:32;19.82;64.16
73141;SHT31;61339;50.558;4.696;2023-08-31T08:12:57;19.65;64.77
73141;SHT31;61339;50.558;4.696;2023-08-31T08:15:24;19.29;66.02
73141;SHT31;61339;50.558;4.696;2023-08-31T08:17:49;18.84;66.79
73141;SHT31;61339;50.558;4.696;2023-08-31T08:20:15;18.66;67.75
73141;SHT31;61339;50.558;4.696;2023-08-31T08:22:40;18.63;67.81
73141;SHT31;61339;50.558;4.696;2023-08-31T08:25:06;18.74;68.02
73141;SHT31;61339;50.558;4.696;2023-08-31T08:27:32;19.58;65.58
73141;SHT31;61339;50.558;4.696;2023-08-31T08:30:03;19.92;64.33
73141;SHT31;61339;50.558;4.696;2023-08-31T08:32:29;19.98;63.94
73141;SHT31;61339;50.558;4.696;2023-08-31T08:34:55;21.18;60.61
73141;SHT31;61339;50.558;4.696;2023-08-31T08:37:20;21.97;57.92
73141;SHT31;61339;50.558;4.696;2023-08-31T08:39:49;23.18;54.55
73141;SHT31;61339;50.558;4.696;2023-08-31T08:42:17;23.79;52.78
73141;SHT31;61339;50.558;4.696;2023-08-31T08:44:44;24.09;51.88
73141;SHT31;61339;50.558;4.696;2023-08-31T08:47:11;24.20;51.29
73141;SHT31;61339;50.558;4.696;2023-08-31T08:49:36;24.23;51.25
73141;SHT31;61339;50.558;4.696;2023-08-31T08:52:02;24.70;49.87
73141;SHT31;61339;50.558;4.696;2023-08-31T08:54:28;24.27;50.50
73141;SHT31;61339;50.558;4.696;2023-08-31T08:56:54;23.71;52.28
73141;SHT31;61339;50.558;4.696;2023-08-31T08:59:19;23.54;53.09
73141;SHT31;61339;50.558;4.696;2023-08-31T09:01:45;24.19;51.51
73141;SHT31;61339;50.558;4.696;2023-08-31T09:04:11;23.62;52.22
73141;SHT31;61339;50.558;4.696;2023-08-31T09:06:36;22.66;54.93
73141;SHT31;61339;50.558;4.696;2023-08-31T09:09:02;21.95;56.50
73141;SHT31;61339;50.558;4.696;2023-08-31T09:11:29;22.73;54.91
73141;SHT31;61339;50.558;4.696;2023-08-31T09:13:57;22.94;54.72
73141;SHT31;61339;50.558;4.696;2023-08-31T09:16:29;23.96;52.52
73141;SHT31;61339;50.558;4.696;2023-08-31T09:18:58;23.72;52.55
73141;SHT31;61339;50.558;4.696;2023-08-31T09:21:37;24.05;51.77
73141;SHT31;61339;50.558;4.696;2023-08-31T09:24:06;23.68;52.39
73141;SHT31;61339;50.558;4.696;2023-08-31T09:26:41;23.47;53.35
73141;SHT31;61339;50.558;4.696;2023-08-31T09:29:10;22.67;55.23
73141;SHT31;61339;50.558;4.696;2023-08-31T09:31:35;21.95;56.64
73141;SHT31;61339;50.558;4.696;2023-08-31T09:34:01;21.40;58.09
73141;SHT31;61339;50.558;4.696;2023-08-31T09:36:26;21.15;58.82
73141;SHT31;61339;50.558;4.696;2023-08-31T09:38:57;20.89;59.30
73141;SHT31;61339;50.558;4.696;2023-08-31T09:41:23;20.69;59.76
73141;SHT31;61339;50.558;4.696;2023-08-31T09:43:48;20.64;60.06
73141;SHT31;61339;50.558;4.696;2023-08-31T09:46:14;20.45;60.71
73141;SHT31;61339;50.558;4.696;2023-08-31T09:48:42;20.40;61.23
73141;SHT31;61339;50.558;4.696;2023-08-31T09:51:09;20.54;61.00
73141;SHT31;61339;50.558;4.696;2023-08-31T09:53:36;21.18;59.78
73141;SHT31;61339;50.558;4.696;2023-08-31T09:56:05;22.12;56.83
73141;SHT31;61339;50.558;4.696;2023-08-31T09:58:32;24.00;52.69
73141;SHT31;61339;50.558;4.696;2023-08-31T10:00:58;25.04;49.08
73141;SHT31;61339;50.558;4.696;2023-08-31T10:03:26;26.01;46.75
73141;SHT31;61339;50.558;4.696;2023-08-31T10:05:51;26.51;45.66
73141;SHT31;61339;50.558;4.696;2023-08-31T10:08:17;26.83;45.66
73141;SHT31;61339;50.558;4.696;2023-08-31T10:10:44;27.68;43.08
73141;SHT31;61339;50.558;4.696;2023-08-31T10:13:11;27.96;42.66
73141;SHT31;61339;50.558;4.696;2023-08-31T10:15:36;28.61;41.19
73141;SHT31;61339;50.558;4.696;2023-08-31T10:18:04;29.34;39.42
73141;SHT31;61339;50.558;4.696;2023-08-31T10:20:30;29.59;38.89
73141;SHT31;61339;50.558;4.696;2023-08-31T10:23:06;29.58;38.50
73141;SHT31;61339;50.558;4.696;2023-08-31T10:28:19;30.76;37.06
73141;SHT31;61339;50.558;4.696;2023-08-31T10:31:05;31.37;35.40
73141;SHT31;61339;50.558;4.696;2023-08-31T10:33:33;32.05;34.27
73141;SHT31;61339;50.558;4.696;2023-08-31T10:35:59;30.88;35.51
73141;SHT31;61339;50.558;4.696;2023-08-31T10:38:25;29.35;37.52
73141;SHT31;61339;50.558;4.696;2023-08-31T10:43:55;26.00;43.53
73141;SHT31;61339;50.558;4.696;2023-08-31T10:46:31;24.94;46.34
73141;SHT31;61339;50.558;4.696;2023-08-31T10:49:16;24.24;47.14
73141;SHT31;61339;50.558;4.696;2023-08-31T10:51:45;23.89;47.38
73141;SHT31;61339;50.558;4.696;2023-08-31T10:54:25;24.71;45.27
73141;SHT31;61339;50.558;4.696;2023-08-31T10:59:51;25.14;43.94
73141;SHT31;61339;50.558;4.696;2023-08-31T11:05:15;26.22;40.68
73141;SHT31;61339;50.558;4.696;2023-08-31T11:07:47;27.13;38.82
73141;SHT31;61339;50.558;4.696;2023-08-31T11:10:22;26.38;39.78
73141;SHT31;61339;50.558;4.696;2023-08-31T11:12:50;25.96;40.39
73141;SHT31;61339;50.558;4.696;2023-08-31T11:15:18;25.36;41.89
73141;SHT31;61339;50.558;4.696;2023-08-31T11:17:44;24.74;43.45
73141;SHT31;61339;50.558;4.696;2023-08-31T11:20:17;24.27;44.37
73141;SHT31;61339;50.558;4.696;2023-08-31T11:22:44;24.10;44.94
73141;SHT31;61339;50.558;4.696;2023-08-31T11:25:13;23.96;44.60
73141;SHT31;61339;50.558;4.696;2023-08-31T11:27:39;23.72;45.26
73141;SHT31;61339;50.558;4.696;2023-08-31T11:30:16;23.37;46.09
73141;SHT31;61339;50.558;4.696;2023-08-31T11:32:50;23.24;45.68
73141;SHT31;61339;50.558;4.696;2023-08-31T11:35:16;23.30;45.76
73141;SHT31;61339;50.558;4.696;2023-08-31T11:37:49;23.45;45.54
73141;SHT31;61339;50.558;4.696;2023-08-31T11:40:14;23.66;45.52
73141;SHT31;61339;50.558;4.696;2023-08-31T11:42:40;24.20;44.76
73141;SHT31;61339;50.558;4.696;2023-08-31T11:45:06;24.91;42.71
73141;SHT31;61339;50.558;4.696;2023-08-31T11:47:32;25.96;40.32
73141;SHT31;61339;50.558;4.696;2023-08-31T11:49:59;26.68;38.86
73141;SHT31;61339;50.558;4.696;2023-08-31T11:52:25;26.31;39.68
73141;SHT31;61339;50.558;4.696;2023-08-31T11:54:53;26.45;39.97
73141;SHT31;61339;50.558;4.696;2023-08-31T11:57:19;27.38;37.96
73141;SHT31;61339;50.558;4.696;2023-08-31T11:59:50;27.43;37.80
73141;SHT31;61339;50.558;4.696;2023-08-31T12:02:16;27.92;37.01
73141;SHT31;61339;50.558;4.696;2023-08-31T12:04:45;27.10;38.30
73141;SHT31;61339;50.558;4.696;2023-08-31T12:07:11;28.66;35.93
73141;SHT31;61339;50.558;4.696;2023-08-31T12:09:36;27.62;36.63
73141;SHT31;61339;50.558;4.696;2023-08-31T12:12:02;27.67;36.35
73141;SHT31;61339;50.558;4.696;2023-08-31T12:14:30;27.18;35.99
73141;SHT31;61339;50.558;4.696;2023-08-31T12:17:03;26.95;35.65
73141;SHT31;61339;50.558;4.696;2023-08-31T12:19:31;26.72;36.01
73141;SHT31;61339;50.558;4.696;2023-08-31T12:21:57;26.49;36.59
73141;SHT31;61339;50.558;4.696;2023-08-31T12:24:23;26.24;37.13
73141;SHT31;61339;50.558;4.696;2023-08-31T12:26:49;25.67;37.76
73141;SHT31;61339;50.558;4.696;2023-08-31T12:29:16;24.98;39.18
73141;SHT31;61339;50.558;4.696;2023-08-31T12:31:41;24.61;40.15
73141;SHT31;61339;50.558;4.696;2023-08-31T12:34:09;24.27;40.89
73141;SHT31;61339;50.558;4.696;2023-08-31T12:36:35;23.90;41.90
73141;SHT31;61339;50.558;4.696;2023-08-31T12:39:09;23.47;42.02
73141;SHT31;61339;50.558;4.696;2023-08-31T12:41:36;23.22;42.62
73141;SHT31;61339;50.558;4.696;2023-08-31T12:44:02;23.24;42.96
73141;SHT31;61339;50.558;4.696;2023-08-31T12:46:29;23.30;42.67
73141;SHT31;61339;50.558;4.696;2023-08-31T12:48:55;23.35;43.63
73141;SHT31;61339;50.558;4.696;2023-08-31T12:51:20;23.55;43.86
73141;SHT31;61339;50.558;4.696;2023-08-31T12:53:46;23.54;44.06
73141;SHT31;61339;50.558;4.696;2023-08-31T12:56:12;23.47;43.91
73141;SHT31;61339;50.558;4.696;2023-08-31T12:58:38;23.27;44.99
73141;SHT31;61339;50.558;4.696;2023-08-31T13:01:04;23.27;45.09
73141;SHT31;61339;50.558;4.696;2023-08-31T13:03:29;23.32;45.33
73141;SHT31;61339;50.558;4.696;2023-08-31T13:05:55;23.48;44.75
73141;SHT31;61339;50.558;4.696;2023-08-31T13:08:21;23.47;44.41
73141;SHT31;61339;50.558;4.696;2023-08-31T13:10:53;23.44;44.31
73141;SHT31;61339;50.558;4.696;2023-08-31T13:13:19;23.42;44.76
73141;SHT31;61339;50.558;4.696;2023-08-31T13:15:49;23.44;44.23
73141;SHT31;61339;50.558;4.696;2023-08-31T13:18:15;23.55;43.94
73141;SHT31;61339;50.558;4.696;2023-08-31T13:20:40;23.61;44.39
73141;SHT31;61339;50.558;4.696;2023-08-31T13:23:06;23.59;44.97
73141;SHT31;61339;50.558;4.696;2023-08-31T13:25:32;23.40;44.79
73141;SHT31;61339;50.558;4.696;2023-08-31T13:27:57;23.20;45.97
73141;SHT31;61339;50.558;4.696;2023-08-31T13:30:23;23.14;46.36
73141;SHT31;61339;50.558;4.696;2023-08-31T13:32:49;23.07;46.83
73141;SHT31;61339;50.558;4.696;2023-08-31T13:35:15;23.03;47.41
73141;SHT31;61339;50.558;4.696;2023-08-31T13:37:41;23.03;47.11
73141;SHT31;61339;50.558;4.696;2023-08-31T13:40:06;23.04;46.76
73141;SHT31;61339;50.558;4.696;2023-08-31T13:42:36;22.91;46.83
73141;SHT31;61339;50.558;4.696;2023-08-31T13:45:07;22.74;47.05
73141;SHT31;61339;50.558;4.696;2023-08-31T13:47:32;22.59;47.43
73141;SHT31;61339;50.558;4.696;2023-08-31T13:49:58;22.46;47.35
73141;SHT31;61339;50.558;4.696;2023-08-31T13:52:24;22.43;47.96
73141;SHT31;61339;50.558;4.696;2023-08-31T13:54:50;22.48;47.97
73141;SHT31;61339;50.558;4.696;2023-08-31T13:57:15;22.48;47.66
73141;SHT31;61339;50.558;4.696;2023-08-31T13:59:43;22.51;47.48
73141;SHT31;61339;50.558;4.696;2023-08-31T14:02:08;22.59;48.11
73141;SHT31;61339;50.558;4.696;2023-08-31T14:04:34;22.74;47.93
73141;SHT31;61339;50.558;4.696;2023-08-31T14:06:59;22.82;47.80
73141;SHT31;61339;50.558;4.696;2023-08-31T14:09:27;22.67;46.13
73141;SHT31;61339;50.558;4.696;2023-08-31T14:11:53;22.72;46.23
73141;SHT31;61339;50.558;4.696;2023-08-31T14:14:22;22.64;46.42
73141;SHT31;61339;50.558;4.696;2023-08-31T14:16:49;22.53;46.92
73141;SHT31;61339;50.558;4.696;2023-08-31T14:19:14;22.33;47.44
73141;SHT31;61339;50.558;4.696;2023-08-31T14:21:40;22.26;47.86
73141;SHT31;61339;50.558;4.696;2023-08-31T14:24:06;22.15;48.07
73141;SHT31;61339;50.558;4.696;2023-08-31T14:26:31;21.95;48.13
73141;SHT31;61339;50.558;4.696;2023-08-31T14:28:57;21.73;48.99
73141;SHT31;61339;50.558;4.696;2023-08-31T14:31:22;21.64;48.90
73141;SHT31;61339;50.558;4.696;2023-08-31T14:33:48;21.46;49.36
73141;SHT31;61339;50.558;4.696;2023-08-31T14:36:14;21.40;49.72
73141;SHT31;61339;50.558;4.696;2023-08-31T14:38:40;21.36;49.26
73141;SHT31;61339;50.558;4.696;2023-08-31T14:41:06;21.26;50.03
73141;SHT31;61339;50.558;4.696;2023-08-31T14:43:32;21.19;49.97
73141;SHT31;61339;50.558;4.696;2023-08-31T14:45:58;21.03;50.55
73141;SHT31;61339;50.558;4.696;2023-08-31T14:48:26;20.95;50.78
73141;SHT31;61339;50.558;4.696;2023-08-31T14:50:51;20.96;51.09
73141;SHT31;61339;50.558;4.696;2023-08-31T14:53:17;20.92;51.17
73141;SHT31;61339;50.558;4.696;2023-08-31T14:55:48;20.86;51.33
73141;SHT31;61339;50.558;4.696;2023-08-31T14:58:13;20.91;51.02
73141;SHT31;61339;50.558;4.696;2023-08-31T15:00:39;20.89;50.89
73141;SHT31;61339;50.558;4.696;2023-08-31T15:03:04;20.96;51.40
73141;SHT31;61339;50.558;4.696;2023-08-31T15:05:30;20.89;51.67
73141;SHT31;61339;50.558;4.696;2023-08-31T15:07:55;20.85;52.00
73141;SHT31;61339;50.558;4.696;2023-08-31T15:10:21;20.78;52.58
73141;SHT31;61339;50.558;4.696;2023-08-31T15:12:47;20.71;52.86
73141;SHT31;61339;50.558;4.696;2023-08-31T15:15:12;20.55;53.66
73141;SHT31;61339;50.558;4.696;2023-08-31T15:17:38;20.45;53.77
73141;SHT31;61339;50.558;4.696;2023-08-31T15:20:04;20.44;54.31
73141;SHT31;61339;50.558;4.696;2023-08-31T15:22:33;20.45;54.43
73141;SHT31;61339;50.558;4.696;2023-08-31T15:24:59;20.41;54.97
73141;SHT31;61339;50.558;4.696;2023-08-31T15:27:24;20.45;54.94
73141;SHT31;61339;50.558;4.696;2023-08-31T15:29:50;20.45;55.35
73141;SHT31;61339;50.558;4.696;2023-08-31T15:32:15;20.47;55.20
73141;SHT31;61339;50.558;4.696;2023-08-31T15:34:41;20.45;55.16
73141;SHT31;61339;50.558;4.696;2023-08-31T15:37:06;20.49;54.84
73141;SHT31;61339;50.558;4.696;2023-08-31T15:39:31;20.45;55.01
73141;SHT31;61339;50.558;4.696;2023-08-31T15:41:57;20.44;55.83
73141;SHT31;61339;50.558;4.696;2023-08-31T15:44:22;20.41;55.87
73141;SHT31;61339;50.558;4.696;2023-08-31T15:46:48;20.35;56.69
73141;SHT31;61339;50.558;4.696;2023-08-31T15:49:13;20.20;56.52